Time;durP1;ratioP1;P1;durP2;ratioP2;P2;SDS_P1;SDS_P2;PMS_P1;PMS_P2;Temp;Humidity;BMP_temperature;BMP_pressure;BME280_temperature;BME280_humidity;BME280_pressure;Samples;Min_cycle;Max_cycle;Signal;HPM_P1;HPM_P2
2023/05/11 00:00:35;;;;;;;6.20;2.73;;;;;;;10.21;40.56;100747.53;4209146;28;20268;-63
2023/05/11 00:03:01;;;;;;;6.00;2.87;;;;;;;10.17;40.40;100743.38;4209113;28;24961;-62
2023/05/11 00:05:28;;;;;;;8.57;2.50;;;;;;;10.17;40.13;100741.53;4199236;28;20282;-66
2023/05/11 00:07:55;;;;;;;8.60;2.37;;;;;;;10.20;40.54;100745.81;4210019;28;20237;-64
2023/05/11 00:10:22;;;;;;;6.30;2.47;;;;;;;10.12;40.59;100741.09;4205381;28;20247;-61
2023/05/11 00:12:48;;;;;;;3.87;2.17;;;;;;;10.13;40.19;100742.78;4209668;28;25784;-63
2023/05/11 00:15:15;;;;;;;5.83;2.10;;;;;;;10.13;40.33;100734.66;4208437;28;22204;-61
2023/05/11 00:17:41;;;;;;;12.07;2.63;;;;;;;10.15;40.52;100735.41;4207792;28;20330;-63
2023/05/11 00:20:08;;;;;;;9.37;2.40;;;;;;;10.11;40.43;100734.81;4210429;28;21625;-65
2023/05/11 00:22:35;;;;;;;6.53;2.30;;;;;;;10.17;39.90;100730.72;4209779;28;20288;-61
2023/05/11 00:25:01;;;;;;;4.90;2.43;;;;;;;10.17;39.75;100737.97;4209637;28;20294;-62
2023/05/11 00:27:28;;;;;;;7.10;2.30;;;;;;;10.22;39.74;100743.84;4212653;28;20303;-62
2023/05/11 00:29:55;;;;;;;8.33;2.30;;;;;;;10.16;40.03;100745.22;4208790;28;20315;-63
2023/05/11 00:32:21;;;;;;;4.87;2.30;;;;;;;10.18;40.00;100742.38;4211546;28;20352;-62
2023/05/11 00:34:48;;;;;;;6.17;2.43;;;;;;;10.13;40.34;100748.19;4220493;28;20332;-62
2023/05/11 00:37:14;;;;;;;4.13;2.30;;;;;;;10.09;40.11;100746.78;4209506;28;20235;-62
2023/05/11 00:39:41;;;;;;;6.50;2.23;;;;;;;10.07;40.04;100741.50;4200057;28;20308;-64
2023/05/11 00:42:09;;;;;;;6.33;2.20;;;;;;;10.09;40.03;100747.63;4208764;28;20232;-62
2023/05/11 00:44:36;;;;;;;3.50;2.10;;;;;;;10.08;40.07;100739.66;4198621;28;20236;-63
2023/05/11 00:47:02;;;;;;;5.87;2.13;;;;;;;9.99;40.33;100733.22;4210102;28;20229;-63
2023/05/11 00:49:30;;;;;;;9.23;2.33;;;;;;;9.92;40.62;100741.00;4211942;28;20686;-62
2023/05/11 00:51:56;;;;;;;5.80;2.30;;;;;;;9.90;40.40;100740.28;4211885;28;22913;-62
2023/05/11 00:54:23;;;;;;;7.83;2.20;;;;;;;9.88;40.56;100734.16;4208507;28;21584;-62
2023/05/11 00:56:50;;;;;;;6.13;2.70;;;;;;;9.85;40.64;100733.59;4207518;28;20232;-62
2023/05/11 00:59:17;;;;;;;3.90;2.17;;;;;;;9.79;40.98;100733.13;4211160;28;20232;-64
2023/05/11 01:01:44;;;;;;;5.43;2.07;;;;;;;9.77;40.78;100740.53;4210019;28;20742;-61
2023/05/11 01:04:11;;;;;;;6.97;2.17;;;;;;;9.72;41.10;100729.25;4210416;28;21443;-64
2023/05/11 01:06:53;;;;;;;5.80;2.10;;;;;;;9.69;41.17;100726.81;4226905;28;23194;-61
2023/05/11 01:09:28;;;;;;;7.77;2.27;;;;;;;9.74;41.06;100729.13;4213728;28;20246;-63
2023/05/11 01:12:37;;;;;;;8.70;2.53;;;;;;;9.66;41.09;100736.06;4210962;28;20242;-64
2023/05/11 01:15:05;;;;;;;3.93;2.30;;;;;;;9.65;41.03;100731.66;4187361;28;20998;-62
2023/05/11 01:17:46;;;;;;;7.60;2.10;;;;;;;9.68;40.96;100725.94;4195676;28;20304;-64
2023/05/11 01:20:22;;;;;;;6.70;2.20;;;;;;;9.58;41.13;100727.75;4218466;28;20243;-62
2023/05/11 01:23:07;;;;;;;8.33;2.53;;;;;;;9.57;40.91;100720.66;4205516;28;20308;-63
2023/05/11 01:26:04;;;;;;;6.53;2.40;;;;;;;9.56;41.05;100727.03;4215226;28;20235;-66
2023/05/11 01:28:59;;;;;;;4.77;2.30;;;;;;;9.55;41.06;100721.78;4219992;28;20556;-62
2023/05/11 01:31:29;;;;;;;6.33;1.93;;;;;;;9.52;40.94;100729.16;4217360;28;20228;-61
2023/05/11 01:34:03;;;;;;;5.30;2.00;;;;;;;9.49;41.16;100723.16;4216864;28;20382;-62
2023/05/11 01:36:34;;;;;;;4.63;2.17;;;;;;;9.47;41.28;100731.41;4191864;28;20318;-62
2023/05/11 01:39:04;;;;;;;7.27;2.07;;;;;;;9.42;41.39;100720.13;4220190;28;20233;-64
2023/05/11 01:41:32;;;;;;;9.50;2.20;;;;;;;9.50;40.91;100712.19;4205129;28;21394;-62
2023/05/11 01:44:02;;;;;;;5.00;2.17;;;;;;;9.52;40.62;100720.16;4232213;28;20353;-60
2023/05/11 01:46:32;;;;;;;7.93;2.33;;;;;;;9.52;40.89;100723.75;4212369;28;20228;-61
2023/05/11 01:49:00;;;;;;;5.67;2.23;;;;;;;9.48;41.16;100718.72;4193035;28;23484;-61
2023/05/11 01:51:30;;;;;;;4.67;1.90;;;;;;;9.46;40.93;100716.19;4204279;28;20240;-63
2023/05/11 01:53:58;;;;;;;6.53;2.17;;;;;;;9.43;41.06;100724.53;4209664;28;25355;-63
2023/05/11 01:56:26;;;;;;;8.60;2.10;;;;;;;9.45;40.92;100722.56;4204380;28;20316;-62
2023/05/11 01:58:54;;;;;;;6.53;2.40;;;;;;;9.40;40.89;100715.84;4212151;28;20244;-61
2023/05/11 02:01:21;;;;;;;4.50;1.97;;;;;;;9.41;41.09;100720.25;4211430;28;20241;-61
2023/05/11 02:03:48;;;;;;;7.53;2.40;;;;;;;9.40;40.93;100710.44;4197288;28;20599;-63
2023/05/11 02:06:16;;;;;;;4.10;2.00;;;;;;;9.32;41.56;100725.47;4210712;28;20278;-62
2023/05/11 02:08:44;;;;;;;5.83;2.23;;;;;;;9.36;41.21;100723.34;4203588;28;20248;-63
2023/05/11 02:11:12;;;;;;;6.17;1.97;;;;;;;9.29;41.43;100724.88;4207497;28;21569;-61
2023/05/11 02:13:40;;;;;;;6.97;2.17;;;;;;;9.28;41.45;100724.03;4199606;28;20408;-62
2023/05/11 02:16:08;;;;;;;3.47;1.77;;;;;;;9.32;41.02;100713.81;4204475;28;20568;-64
2023/05/11 02:18:37;;;;;;;5.20;2.20;;;;;;;9.34;41.01;100722.63;4199908;28;20236;-61
2023/05/11 02:21:04;;;;;;;6.43;2.27;;;;;;;9.31;40.96;100718.34;4207141;28;20937;-64
2023/05/11 02:23:31;;;;;;;5.90;2.20;;;;;;;9.27;41.16;100713.34;4225094;28;20242;-60
2023/05/11 02:25:58;;;;;;;9.60;2.40;;;;;;;9.30;40.81;100722.03;4206617;28;20266;-64
2023/05/11 02:28:25;;;;;;;8.03;2.33;;;;;;;9.31;40.92;100714.81;4203825;28;20224;-62
2023/05/11 02:30:55;;;;;;;5.17;2.30;;;;;;;9.25;41.55;100720.75;4204602;28;23548;-67
2023/05/11 02:33:30;;;;;;;3.97;2.20;;;;;;;9.20;41.19;100719.28;4218715;28;20278;-65
2023/05/11 02:35:57;;;;;;;7.20;2.50;;;;;;;9.20;41.40;100715.72;4203598;28;20235;-65
2023/05/11 02:38:32;;;;;;;4.90;2.30;;;;;;;9.20;41.66;100723.84;4191250;28;21895;-61
2023/05/11 02:41:01;;;;;;;5.30;2.57;;;;;;;9.20;41.48;100721.97;4208870;28;20232;-64
2023/05/11 02:43:31;;;;;;;4.77;2.17;;;;;;;9.11;41.53;100728.16;4224552;28;25633;-63
2023/05/11 02:46:01;;;;;;;5.60;2.10;;;;;;;9.14;41.29;100730.59;4210597;28;20227;-62
2023/05/11 02:48:30;;;;;;;4.43;2.20;;;;;;;9.09;41.41;100722.06;4211025;28;20287;-63
2023/05/11 02:50:57;;;;;;;4.13;1.87;;;;;;;9.12;41.50;100715.53;4204574;28;20319;-61
2023/05/11 02:53:26;;;;;;;5.90;2.40;;;;;;;9.15;41.41;100728.75;4222141;28;20414;-61
2023/05/11 02:55:54;;;;;;;5.20;1.90;;;;;;;9.14;41.31;100721.66;4215010;28;20224;-63
2023/05/11 02:58:21;;;;;;;5.23;2.20;;;;;;;9.09;41.40;100726.56;4219194;28;20236;-62
2023/05/11 03:00:47;;;;;;;6.40;2.07;;;;;;;9.12;41.22;100718.22;4208734;28;21564;-61
2023/05/11 03:03:14;;;;;;;4.90;1.83;;;;;;;9.16;41.24;100722.38;4213598;28;20293;-64
2023/05/11 03:05:41;;;;;;;7.43;2.10;;;;;;;9.13;41.09;100722.66;4214345;28;21611;-65
2023/05/11 03:08:08;;;;;;;6.07;2.00;;;;;;;9.17;40.97;100722.25;4233475;28;20235;-65
2023/05/11 03:10:35;;;;;;;4.73;2.13;;;;;;;9.24;40.84;100727.97;4217076;28;21758;-61
2023/05/11 03:13:02;;;;;;;8.27;2.13;;;;;;;9.18;41.20;100729.34;4216582;28;20325;-61
2023/05/11 03:15:29;;;;;;;8.83;2.20;;;;;;;9.18;41.39;100725.78;4201234;28;25813;-63
2023/05/11 03:17:56;;;;;;;4.53;2.10;;;;;;;9.13;41.55;100742.38;4212562;28;20523;-62
2023/05/11 03:20:23;;;;;;;5.77;2.20;;;;;;;9.06;41.52;100735.81;4230074;28;20240;-61
2023/05/11 03:22:50;;;;;;;4.80;2.50;;;;;;;9.08;41.71;100743.75;4213194;28;20244;-62
2023/05/11 03:25:17;;;;;;;6.57;2.13;;;;;;;9.03;42.01;100745.03;4206536;28;20271;-64
2023/05/11 03:27:44;;;;;;;4.83;2.30;;;;;;;8.98;42.28;100738.28;4215003;28;20242;-62
2023/05/11 03:30:13;;;;;;;4.33;1.93;;;;;;;8.98;42.75;100747.25;4220134;28;23338;-65
2023/05/11 03:32:39;;;;;;;7.93;2.37;;;;;;;8.89;42.82;100753.44;4195740;28;20810;-62
2023/05/11 03:35:07;;;;;;;17.20;2.83;;;;;;;8.87;42.64;100740.03;4219300;28;21464;-59
2023/05/11 03:37:36;;;;;;;5.77;2.40;;;;;;;8.88;42.55;100749.84;4225909;28;21526;-61
2023/05/11 03:40:03;;;;;;;4.40;2.00;;;;;;;8.87;42.72;100745.44;4201669;28;21657;-62
2023/05/11 03:42:32;;;;;;;5.70;2.30;;;;;;;8.90;43.02;100747.06;4224067;28;21211;-61
2023/05/11 03:44:59;;;;;;;6.90;2.40;;;;;;;8.88;43.05;100760.66;4212191;28;20239;-63
2023/05/11 03:47:28;;;;;;;6.57;2.40;;;;;;;8.89;43.18;100756.13;4202565;28;20268;-63
2023/05/11 03:49:56;;;;;;;8.87;2.23;;;;;;;8.89;42.89;100758.84;4203236;28;20245;-61
2023/05/11 03:52:23;;;;;;;7.53;2.50;;;;;;;8.88;42.93;100751.72;4216898;28;20260;-61
2023/05/11 03:54:49;;;;;;;9.43;2.30;;;;;;;8.92;43.00;100755.84;4208531;28;20638;-63
2023/05/11 03:57:16;;;;;;;8.77;2.37;;;;;;;8.93;43.28;100762.13;4217546;28;20812;-60
2023/05/11 03:59:42;;;;;;;5.87;2.50;;;;;;;8.96;43.47;100764.56;4220157;28;20299;-64
2023/05/11 04:02:09;;;;;;;7.43;2.47;;;;;;;8.96;43.28;100761.84;4210391;28;20463;-63
2023/05/11 04:04:36;;;;;;;8.93;2.70;;;;;;;8.96;43.41;100772.66;4195735;28;20262;-63
2023/05/11 04:07:02;;;;;;;6.90;2.80;;;;;;;8.99;43.40;100764.31;4223596;28;20233;-65
2023/05/11 04:09:29;;;;;;;8.00;2.80;;;;;;;9.01;43.80;100768.59;4238527;28;20649;-65
2023/05/11 04:11:55;;;;;;;6.13;2.30;;;;;;;9.08;43.14;100768.94;4212791;28;22875;-63
2023/05/11 04:14:22;;;;;;;5.07;2.67;;;;;;;9.08;43.42;100759.97;4208483;28;20249;-61
2023/05/11 04:16:48;;;;;;;7.80;2.70;;;;;;;9.19;42.56;100768.03;4224313;28;21097;-67
2023/05/11 04:19:15;;;;;;;7.73;2.73;;;;;;;9.25;43.06;100772.06;4205871;28;20240;-62
2023/05/11 04:21:42;;;;;;;7.40;2.80;;;;;;;9.33;42.44;100756.91;4199216;28;20374;-62
2023/05/11 04:24:08;;;;;;;5.57;2.90;;;;;;;9.31;42.79;100771.53;4210930;28;20231;-62
2023/05/11 04:26:35;;;;;;;6.23;2.33;;;;;;;9.49;42.55;100761.00;4219716;28;20374;-62
2023/05/11 04:29:01;;;;;;;7.60;2.70;;;;;;;9.61;42.10;100768.03;4214948;28;20306;-61
2023/05/11 04:31:29;;;;;;;4.93;2.37;;;;;;;9.63;42.05;100771.47;4214293;28;20235;-62
2023/05/11 04:33:55;;;;;;;9.37;2.87;;;;;;;9.62;42.51;100766.19;4218229;28;20451;-64
2023/05/11 04:36:22;;;;;;;6.07;2.83;;;;;;;9.60;42.55;100766.31;4208531;28;20233;-65
2023/05/11 04:38:49;;;;;;;5.60;2.70;;;;;;;9.66;42.60;100773.03;4213573;28;23552;-52
2023/05/11 04:41:15;;;;;;;8.90;2.67;;;;;;;9.70;42.74;100774.50;4207089;28;20668;-62
2023/05/11 04:43:42;;;;;;;6.07;2.53;;;;;;;9.77;41.43;100772.97;4216330;28;20422;-60
2023/05/11 04:46:08;;;;;;;7.90;3.00;;;;;;;9.86;41.56;100776.72;4218482;28;20578;-61
2023/05/11 04:48:35;;;;;;;7.73;2.67;;;;;;;9.88;41.77;100776.56;4213897;28;20243;-58
2023/05/11 04:51:05;;;;;;;12.00;3.10;;;;;;;10.02;41.53;100767.25;4216409;28;21245;-61
2023/05/11 04:53:32;;;;;;;10.53;3.03;;;;;;;9.93;41.28;100777.88;4212902;28;20268;-61
2023/05/11 04:55:58;;;;;;;7.77;2.50;;;;;;;10.01;41.41;100779.91;4223776;28;20231;-62
2023/05/11 04:58:25;;;;;;;7.57;2.63;;;;;;;10.17;41.44;100781.25;4208407;28;20368;-59
2023/05/11 05:00:51;;;;;;;9.23;3.13;;;;;;;10.20;41.48;100778.28;4215939;28;20382;-62
2023/05/11 05:03:18;;;;;;;6.47;2.60;;;;;;;10.21;41.24;100777.28;4223243;28;20241;-60
2023/05/11 05:05:44;;;;;;;7.40;2.60;;;;;;;10.10;41.52;100781.78;4205669;28;20516;-62
2023/05/11 05:08:11;;;;;;;7.00;3.00;;;;;;;10.26;40.96;100780.44;4212646;28;22146;-59
2023/05/11 05:10:37;;;;;;;9.10;2.80;;;;;;;10.35;40.89;100793.16;4206827;28;20336;-58
2023/05/11 05:13:04;;;;;;;8.10;2.90;;;;;;;10.45;40.83;100785.09;4210909;28;20248;-62
2023/05/11 05:15:30;;;;;;;8.77;2.93;;;;;;;10.55;40.66;100790.50;4231072;28;21560;-61
2023/05/11 05:17:57;;;;;;;11.00;3.13;;;;;;;10.60;41.33;100786.41;4204926;28;20695;-64
2023/05/11 05:20:23;;;;;;;7.10;2.83;;;;;;;10.69;40.88;100798.25;4203227;28;20248;-63
2023/05/11 05:22:50;;;;;;;9.10;2.63;;;;;;;10.86;40.43;100795.84;4213176;28;20953;-65
2023/05/11 05:25:17;;;;;;;6.37;2.63;;;;;;;10.99;39.64;100784.75;4209127;28;20243;-60
2023/05/11 05:27:44;;;;;;;5.90;2.63;;;;;;;10.94;39.96;100801.44;4219236;28;20231;-61
2023/05/11 05:30:10;;;;;;;10.00;3.00;;;;;;;11.02;40.04;100789.91;4220791;28;20669;-64
2023/05/11 05:32:37;;;;;;;6.23;2.50;;;;;;;11.22;39.55;100797.03;4209196;28;20240;-62
2023/05/11 05:35:04;;;;;;;6.27;2.60;;;;;;;11.32;39.08;100794.31;4216230;28;21623;-58
2023/05/11 05:37:31;;;;;;;9.57;2.90;;;;;;;11.40;39.50;100788.19;4213298;28;20226;-60
2023/05/11 05:39:57;;;;;;;6.13;2.43;;;;;;;11.74;38.56;100795.81;4201693;28;21266;-58
2023/05/11 05:42:24;;;;;;;8.97;2.63;;;;;;;11.86;38.06;100788.38;4216754;28;20303;-61
2023/05/11 05:44:51;;;;;;;10.70;2.90;;;;;;;12.28;38.15;100808.81;4220030;28;20625;-62
2023/05/11 05:47:17;;;;;;;8.90;2.60;;;;;;;13.23;36.39;100797.63;4214656;28;20238;-63
2023/05/11 05:49:44;;;;;;;7.83;2.73;;;;;;;13.74;34.75;100803.34;4216356;28;21104;-59
2023/05/11 05:52:10;;;;;;;7.57;2.20;;;;;;;14.19;34.31;100804.16;4243906;28;21851;-60
2023/05/11 05:54:37;;;;;;;10.93;2.87;;;;;;;15.32;32.21;100792.91;4252784;28;20372;-61
2023/05/11 05:57:05;;;;;;;14.00;2.60;;;;;;;16.52;30.13;100799.53;4208095;28;20337;-61
2023/05/11 05:59:31;;;;;;;9.00;2.57;;;;;;;17.64;29.36;100801.00;4253923;28;20238;-62
2023/05/11 06:01:58;;;;;;;5.07;2.60;;;;;;;17.41;28.71;100790.94;4244449;28;20726;-63
2023/05/11 06:04:24;;;;;;;9.53;2.03;;;;;;;18.26;28.07;100798.19;4206760;28;20239;-61
2023/05/11 06:06:51;;;;;;;13.80;2.67;;;;;;;18.12;27.77;100797.13;4214881;28;20228;-59
2023/05/11 06:09:17;;;;;;;9.60;2.30;;;;;;;18.79;27.07;100795.25;4221679;28;20235;-60
2023/05/11 06:11:44;;;;;;;13.53;2.70;;;;;;;18.85;26.35;100791.75;4251510;28;20239;-61
2023/05/11 06:14:11;;;;;;;13.37;2.30;;;;;;;18.92;26.82;100791.88;4234078;28;25688;-61
2023/05/11 06:16:37;;;;;;;6.50;2.57;;;;;;;19.02;26.63;100808.88;4220737;28;21012;-63
2023/05/11 06:19:04;;;;;;;9.63;2.80;;;;;;;18.39;26.98;100806.59;4253064;28;21982;-60
2023/05/11 06:21:31;;;;;;;10.60;2.97;;;;;;;19.37;25.88;100811.75;4236908;28;20220;-62
2023/05/11 06:23:57;;;;;;;8.10;2.47;;;;;;;19.80;25.77;100799.88;4203557;28;20634;-62
2023/05/11 06:26:24;;;;;;;7.77;2.20;;;;;;;20.45;24.45;100807.06;4224879;28;20558;-61
2023/05/11 06:28:51;;;;;;;10.00;2.77;;;;;;;21.04;24.10;100803.72;4222612;28;20281;-61
2023/05/11 06:31:18;;;;;;;10.27;2.40;;;;;;;20.87;23.98;100802.41;4206934;28;20228;-59
2023/05/11 06:33:44;;;;;;;7.90;2.80;;;;;;;19.71;25.22;100809.28;4219310;28;20245;-62
2023/05/11 06:36:11;;;;;;;8.60;2.17;;;;;;;20.66;24.03;100806.94;4229349;28;21163;-61
2023/05/11 06:38:37;;;;;;;10.53;2.33;;;;;;;21.23;23.02;100803.13;4193474;28;20248;-60
2023/05/11 06:41:05;;;;;;;10.93;2.40;;;;;;;21.61;22.86;100811.66;4228444;28;21209;-62
2023/05/11 06:43:32;;;;;;;16.23;2.83;;;;;;;21.17;23.29;100804.81;4232063;28;22381;-65
2023/05/11 06:45:58;;;;;;;8.43;2.20;;;;;;;21.16;23.03;100808.59;4198031;28;22519;-61
2023/05/11 06:48:28;;;;;;;7.57;2.40;;;;;;;21.32;22.91;100801.88;4218931;28;20302;-61
2023/05/11 06:50:55;;;;;;;12.07;2.13;;;;;;;20.61;23.80;100811.38;4209688;28;20316;-61
2023/05/11 06:53:22;;;;;;;5.10;1.80;;;;;;;20.96;22.73;100806.66;4201907;28;20296;-63
2023/05/11 06:55:48;;;;;;;10.40;2.20;;;;;;;21.20;23.12;100816.25;4216225;28;20421;-63
2023/05/11 06:58:15;;;;;;;8.75;2.42;;;;;;;22.10;22.28;100803.97;4212110;28;20438;-60
2023/05/11 07:00:42;;;;;;;10.43;2.17;;;;;;;22.26;21.50;100810.97;4211378;28;20613;-61
2023/05/11 07:03:08;;;;;;;6.53;1.90;;;;;;;21.60;22.33;100815.47;4215938;28;20641;-63
2023/05/11 07:05:36;;;;;;;5.70;1.80;;;;;;;21.06;22.56;100811.75;4249757;28;20239;-62
2023/05/11 07:08:03;;;;;;;5.23;2.10;;;;;;;21.27;22.85;100807.13;4230004;28;22579;-62
2023/05/11 07:10:30;;;;;;;4.63;1.70;;;;;;;21.12;22.73;100813.69;4243711;28;21552;-59
2023/05/11 07:12:57;;;;;;;7.10;1.90;;;;;;;21.44;22.23;100815.88;4208508;28;21057;-62
2023/05/11 07:15:23;;;;;;;6.50;2.10;;;;;;;21.17;22.13;100810.31;4218338;28;20246;-60
2023/05/11 07:17:51;;;;;;;6.87;2.13;;;;;;;21.57;22.00;100813.16;4202572;28;20300;-63
2023/05/11 07:20:18;;;;;;;6.65;2.20;;;;;;;22.58;20.62;100805.56;4198638;28;21611;-65
2023/05/11 07:22:45;;;;;;;7.07;1.83;;;;;;;22.62;20.20;100803.25;4213484;28;20236;-60
2023/05/11 07:25:12;;;;;;;9.43;2.13;;;;;;;23.55;19.70;100801.00;4227316;28;20273;-61
2023/05/11 07:27:38;;;;;;;6.20;1.80;;;;;;;24.20;19.26;100795.09;4245459;28;20306;-61
2023/05/11 07:30:05;;;;;;;7.20;2.00;;;;;;;23.36;19.81;100797.31;4219687;28;21123;-62
2023/05/11 07:32:32;;;;;;;3.30;1.60;;;;;;;24.44;18.86;100788.88;4230733;28;21084;-65
2023/05/11 07:34:59;;;;;;;4.20;1.70;;;;;;;23.41;19.66;100803.03;4218454;28;21181;-61
2023/05/11 07:37:25;;;;;;;6.40;1.90;;;;;;;21.49;21.07;100800.38;4207220;28;20236;-61
2023/05/11 07:39:53;;;;;;;3.60;1.50;;;;;;;20.10;21.52;100796.94;4217888;28;20643;-64
2023/05/11 07:42:19;;;;;;;5.40;1.87;;;;;;;19.75;22.55;100797.72;4224203;28;20243;-64
2023/05/11 07:44:46;;;;;;;8.47;2.00;;;;;;;19.86;22.63;100792.75;4207829;28;20291;-64
2023/05/11 07:47:12;;;;;;;8.07;1.60;;;;;;;20.43;22.32;100799.03;4220346;28;20603;-61
2023/05/11 07:49:40;;;;;;;5.07;1.80;;;;;;;19.42;23.39;100803.75;4212704;28;21067;-63
2023/05/11 07:52:10;;;;;;;7.53;1.70;;;;;;;19.33;23.26;100802.22;4208451;28;22441;-62
2023/05/11 07:54:37;;;;;;;4.10;1.77;;;;;;;19.31;22.99;100802.41;4216057;28;20351;-61
2023/05/11 07:57:04;;;;;;;4.13;1.90;;;;;;;19.15;23.58;100787.06;4218967;28;20285;-62
2023/05/11 07:59:31;;;;;;;8.57;1.83;;;;;;;19.25;23.00;100788.63;4206043;28;20340;-62
2023/05/11 08:01:58;;;;;;;7.27;1.80;;;;;;;18.77;23.40;100791.88;4211627;28;22178;-64
2023/05/11 08:04:26;;;;;;;4.27;1.70;;;;;;;19.06;22.34;100801.94;4231889;28;20237;-62
2023/05/11 08:06:52;;;;;;;8.30;1.90;;;;;;;18.25;23.57;100810.19;4261802;28;22985;-64
2023/05/11 08:09:19;;;;;;;5.70;1.67;;;;;;;18.61;23.52;100795.69;4231127;28;20780;-63
2023/05/11 08:11:46;;;;;;;6.63;1.70;;;;;;;18.63;23.66;100797.19;4248007;28;20240;-61
2023/05/11 08:14:13;;;;;;;8.00;1.43;;;;;;;18.58;23.54;100796.91;4265692;28;20484;-66
2023/05/11 08:16:39;;;;;;;4.63;1.60;;;;;;;19.09;23.74;100793.31;4257970;28;20292;-64
2023/05/11 08:19:06;;;;;;;4.20;1.93;;;;;;;18.68;23.94;100789.25;4288806;28;20240;-63
2023/05/11 08:21:35;;;;;;;9.20;2.13;;;;;;;17.74;25.27;100792.53;4324378;28;20238;-63
2023/05/11 08:24:02;;;;;;;7.97;1.80;;;;;;;17.66;25.50;100803.56;4241621;28;20229;-60
2023/05/11 08:26:28;;;;;;;8.00;2.07;;;;;;;18.12;24.62;100795.25;4294841;28;20252;-61
2023/05/11 08:28:55;;;;;;;9.03;1.70;;;;;;;17.50;25.21;100788.13;4231480;28;20645;-62
2023/05/11 08:31:21;;;;;;;5.43;1.67;;;;;;;17.85;25.61;100788.50;4258692;28;21102;-64
2023/05/11 08:33:48;;;;;;;5.47;1.80;;;;;;;18.06;25.80;100779.56;4237035;28;20232;-63
2023/05/11 08:36:15;;;;;;;4.30;1.63;;;;;;;17.84;25.81;100779.41;4236752;28;20243;-60
2023/05/11 08:38:42;;;;;;;9.77;1.77;;;;;;;18.32;24.84;100781.81;4228984;28;22714;-60
2023/05/11 08:41:11;;;;;;;9.33;1.60;;;;;;;18.32;25.10;100773.59;4213894;28;20629;-65
2023/05/11 08:43:38;;;;;;;5.67;1.87;;;;;;;18.26;24.24;100782.56;4216079;28;20245;-63
2023/05/11 08:46:06;;;;;;;5.07;1.77;;;;;;;18.28;24.63;100788.72;4208785;28;22252;-64
2023/05/11 08:48:33;;;;;;;5.47;1.80;;;;;;;17.80;25.49;100782.72;4208644;28;22557;-59
2023/05/11 08:51:02;;;;;;;8.80;1.90;;;;;;;18.53;24.90;100788.44;4197427;28;20321;-61
2023/05/11 08:53:29;;;;;;;7.53;1.70;;;;;;;18.75;24.63;100777.50;4213643;28;21259;-60
2023/05/11 08:56:00;;;;;;;7.63;1.77;;;;;;;18.79;24.44;100784.28;4225237;28;20311;-63
2023/05/11 08:58:26;;;;;;;9.87;1.60;;;;;;;18.82;24.29;100782.00;4222963;28;20376;-61
2023/05/11 09:00:54;;;;;;;6.93;1.57;;;;;;;18.58;24.18;100774.16;4218061;28;20232;-60
2023/05/11 09:03:21;;;;;;;5.53;1.60;;;;;;;18.04;24.47;100771.53;4201779;28;20237;-61
2023/05/11 09:05:48;;;;;;;8.77;1.70;;;;;;;17.72;25.30;100772.69;4220089;28;20308;-64
2023/05/11 09:08:17;;;;;;;7.07;1.53;;;;;;;17.72;25.43;100781.75;4215358;28;20246;-60
2023/05/11 09:10:43;;;;;;;7.13;1.97;;;;;;;18.16;26.59;100769.16;4206407;28;21303;-62
2023/05/11 09:13:11;;;;;;;5.30;2.03;;;;;;;18.20;25.55;100784.19;4203471;28;25517;-64
2023/05/11 09:15:37;;;;;;;3.90;1.70;;;;;;;18.19;25.48;100771.53;4226473;28;21152;-63
2023/05/11 09:18:04;;;;;;;3.83;2.00;;;;;;;17.95;25.50;100774.53;4217720;28;20333;-62
2023/05/11 09:20:32;;;;;;;3.40;1.60;;;;;;;17.76;25.76;100767.72;4204327;28;20998;-62
2023/05/11 09:22:59;;;;;;;6.07;1.57;;;;;;;17.78;26.14;100774.69;4223495;28;20370;-62
2023/05/11 09:25:29;;;;;;;8.93;1.70;;;;;;;17.55;25.70;100774.75;4226654;28;20229;-62
2023/05/11 09:27:56;;;;;;;10.87;1.40;;;;;;;17.59;26.13;100773.34;4228386;28;20231;-61
2023/05/11 09:30:23;;;;;;;3.03;1.60;;;;;;;17.70;26.09;100751.00;4221131;28;20232;-60
2023/05/11 09:32:50;;;;;;;4.77;1.83;;;;;;;17.91;25.42;100785.00;4228002;28;20370;-61
2023/05/11 09:35:27;;;;;;;11.03;1.90;;;;;;;17.74;24.80;100768.75;4223761;28;20652;-59
2023/05/11 09:38:04;;;;;;;7.03;1.60;;;;;;;17.89;25.61;100771.50;4223270;28;20232;-61
2023/05/11 09:40:35;;;;;;;4.77;1.60;;;;;;;17.41;25.56;100762.72;4222142;28;20259;-61
2023/05/11 09:43:03;;;;;;;7.70;1.93;;;;;;;17.38;26.41;100766.69;4231142;28;20244;-60
2023/05/11 09:45:37;;;;;;;6.90;2.00;;;;;;;17.27;26.14;100769.84;4215340;28;20231;-63
2023/05/11 09:48:05;;;;;;;5.90;1.70;;;;;;;16.97;26.94;100771.63;4208869;28;20247;-60
2023/05/11 09:50:33;;;;;;;3.70;1.87;;;;;;;16.86;27.98;100760.03;4217249;28;20240;-62
2023/05/11 09:52:59;;;;;;;4.83;1.40;;;;;;;17.24;26.99;100757.38;4230749;28;20507;-58
2023/05/11 09:55:26;;;;;;;10.57;2.27;;;;;;;17.43;27.29;100766.97;4221419;28;20240;-64
2023/05/11 09:57:56;;;;;;;5.57;1.80;;;;;;;17.58;27.30;100758.81;4216661;28;20243;-60
2023/05/11 10:00:24;;;;;;;4.20;1.60;;;;;;;17.67;26.86;100764.22;4214129;28;20303;-61
2023/05/11 10:03:04;;;;;;;4.57;1.80;;;;;;;17.77;26.75;100770.25;4231347;28;20235;-64
2023/05/11 10:05:33;;;;;;;4.67;2.00;;;;;;;17.79;26.10;100759.13;4221768;28;20232;-63
2023/05/11 10:08:02;;;;;;;3.43;1.30;;;;;;;17.56;25.81;100743.63;4207308;28;20251;-66
2023/05/11 10:10:31;;;;;;;6.67;1.50;;;;;;;17.60;26.25;100747.66;4219559;28;20281;-63
2023/05/11 10:13:00;;;;;;;6.10;1.80;;;;;;;17.78;26.78;100746.47;4218399;28;20843;-61
2023/05/11 10:15:27;;;;;;;7.97;1.70;;;;;;;17.59;26.66;100745.97;4217757;28;20403;-60
2023/05/11 10:17:55;;;;;;;9.33;1.73;;;;;;;17.86;26.79;100741.75;4204083;28;20304;-61
2023/05/11 10:20:22;;;;;;;5.47;1.90;;;;;;;18.01;26.61;100741.75;4204634;28;20391;-62
2023/05/11 10:22:52;;;;;;;3.90;1.80;;;;;;;18.03;27.18;100731.47;4225638;28;20242;-69
2023/05/11 10:25:21;;;;;;;6.10;1.80;;;;;;;18.30;26.17;100739.19;4209660;28;20369;-67
2023/05/11 10:27:50;;;;;;;6.37;1.43;;;;;;;17.84;26.36;100730.13;4210984;28;21158;-64
2023/05/11 10:30:17;;;;;;;5.03;1.70;;;;;;;18.04;27.10;100737.81;4211812;28;20920;-64
2023/05/11 10:32:45;;;;;;;6.40;1.60;;;;;;;17.99;26.88;100740.25;4213266;28;20243;-66
2023/05/11 10:35:12;;;;;;;8.70;1.90;;;;;;;18.24;26.48;100729.84;4211860;28;21774;-67
2023/05/11 10:37:41;;;;;;;6.17;1.60;;;;;;;18.20;26.27;100723.91;4218749;28;20228;-64
2023/05/11 10:40:08;;;;;;;7.30;1.70;;;;;;;18.05;26.17;100725.84;4215746;28;20580;-66
2023/05/11 10:43:10;;;;;;;5.03;1.70;;;;;;;17.99;26.97;100730.16;4207153;28;20689;-71
2023/05/11 10:46:07;;;;;;;5.23;1.80;;;;;;;18.21;25.21;100722.03;4200944;28;20384;-60
2023/05/11 10:49:13;;;;;;;5.40;1.73;;;;;;;17.88;26.12;100723.25;4211078;28;20303;-61
2023/05/11 10:51:50;;;;;;;6.83;1.77;;;;;;;18.18;25.31;100723.25;4213252;28;23085;-63
2023/05/11 10:54:33;;;;;;;3.23;1.90;;;;;;;18.10;26.13;100727.97;4204254;28;20414;-62
2023/05/11 10:57:07;;;;;;;5.23;1.30;;;;;;;17.96;25.94;100716.00;4210366;28;22478;-62
2023/05/11 10:59:40;;;;;;;6.93;1.97;;;;;;;18.01;26.58;100719.00;4213532;28;21247;-63
2023/05/11 11:02:07;;;;;;;9.80;1.50;;;;;;;17.99;25.95;100716.47;4220389;28;20373;-63
2023/05/11 11:04:48;;;;;;;6.80;1.80;;;;;;;17.84;26.24;100707.38;4217084;28;20608;-62
2023/05/11 11:07:17;;;;;;;3.60;1.33;;;;;;;17.95;25.69;100708.78;4216029;28;20295;-61
2023/05/11 11:09:55;;;;;;;8.40;2.40;;;;;;;17.86;26.30;100706.16;4220787;28;21145;-60
2023/05/11 11:12:25;;;;;;;2.90;1.43;;;;;;;18.16;27.40;100716.28;4219040;28;21188;-61
2023/05/11 11:15:06;;;;;;;7.13;2.00;;;;;;;17.99;26.10;100697.31;4209731;28;20391;-63
2023/05/11 11:17:34;;;;;;;3.93;1.33;;;;;;;18.10;26.06;100708.78;4237367;28;22051;-64
2023/05/11 11:20:03;;;;;;;13.30;2.30;;;;;;;18.33;26.22;100712.25;4217417;28;20224;-58
2023/05/11 11:22:37;;;;;;;12.17;2.33;;;;;;;18.45;25.33;100707.13;4227856;28;21747;-47
2023/05/11 11:25:11;;;;;;;12.47;3.13;;;;;;;18.25;27.26;100695.94;4217378;28;20669;-50
2023/05/11 11:27:40;;;;;;;5.77;2.30;;;;;;;18.60;25.40;100700.75;4223898;28;20228;-51
2023/05/11 11:30:27;;;;;;;13.37;2.70;;;;;;;18.57;26.71;100702.00;4239969;28;20289;-48
2023/05/11 11:33:14;;;;;;;6.40;1.83;;;;;;;18.56;26.06;100702.19;4199475;28;20239;-67